createdAt,value
2023-02-11T00:01:20.568Z,30.38
2023-02-11T00:03:46.841Z,32.03
2023-02-11T00:06:13.163Z,31.10
2023-02-11T00:08:39.830Z,34.50
2023-02-11T00:11:06.249Z,32.13
2023-02-11T00:13:32.440Z,31.92
2023-02-11T00:15:58.646Z,30.10
2023-02-11T00:18:24.962Z,35.17
2023-02-11T00:20:51.211Z,29.13
2023-02-11T00:23:17.442Z,31.33
2023-02-11T00:25:44.738Z,31.70
2023-02-11T00:28:11.327Z,31.33
2023-02-11T00:30:37.846Z,30.92
2023-02-11T00:33:04.193Z,31.77
2023-02-11T00:35:30.454Z,30.50
2023-02-11T00:37:56.726Z,29.63
2023-02-11T00:40:22.947Z,34.70
2023-02-11T00:42:49.221Z,29.17
2023-02-11T00:45:15.494Z,35.90
2023-02-11T00:47:41.696Z,31.80
2023-02-11T00:50:08.234Z,33.00
2023-02-11T00:52:34.473Z,33.22
2023-02-11T00:55:00.686Z,33.70
2023-02-11T00:57:26.885Z,32.65
2023-02-11T00:59:53.074Z,30.83
2023-02-11T01:02:19.279Z,34.42
2023-02-11T01:04:45.487Z,29.38
2023-02-11T01:07:11.745Z,32.35
2023-02-11T01:09:38.250Z,31.70
2023-02-11T01:12:04.508Z,32.70
2023-02-11T01:14:30.709Z,31.15
2023-02-11T01:16:56.960Z,30.83
2023-02-11T01:19:23.166Z,32.08
2023-02-11T01:21:49.402Z,33.75
2023-02-11T01:24:15.597Z,33.90
2023-02-11T01:26:41.799Z,33.28
2023-02-11T01:29:09.268Z,31.38
2023-02-11T01:31:35.579Z,33.58
2023-02-11T01:34:01.885Z,29.20
2023-02-11T01:36:28.120Z,30.50
2023-02-11T01:38:54.355Z,30.63
2023-02-11T01:41:20.605Z,36.95
2023-02-11T01:43:48.814Z,36.45
2023-02-11T01:46:21.228Z,33.95
2023-02-11T01:48:48.942Z,37.20
2023-02-11T01:51:21.115Z,37.03
2023-02-11T01:54:06.763Z,35.33
2023-02-11T01:56:52.894Z,35.92
2023-02-11T01:59:22.828Z,34.55
2023-02-11T02:01:52.952Z,35.33
2023-02-11T02:04:19.699Z,34.35
2023-02-11T02:06:50.560Z,37.03
2023-02-11T02:09:20.059Z,35.78
2023-02-11T02:11:46.300Z,38.05
2023-02-11T02:14:12.497Z,38.25
2023-02-11T02:16:38.766Z,35.42
2023-02-11T02:19:23.957Z,42.53
2023-02-11T02:22:05.362Z,40.40
2023-02-11T02:24:37.015Z,40.42
2023-02-11T02:27:15.684Z,38.45
2023-02-11T02:29:53.926Z,36.72
2023-02-11T02:32:24.047Z,36.80
2023-02-11T02:35:08.141Z,34.88
2023-02-11T02:38:06.833Z,45.22
2023-02-11T02:40:53.287Z,34.65
2023-02-11T02:43:20.084Z,37.83
2023-02-11T02:45:46.298Z,38.22
2023-02-11T02:48:24.753Z,43.75
2023-02-11T02:50:52.707Z,40.03
2023-02-11T02:53:25.731Z,37.25
2023-02-11T02:56:01.180Z,42.75
2023-02-11T02:58:39.388Z,40.78
2023-02-11T03:01:14.860Z,43.63
2023-02-11T03:04:03.224Z,47.13
2023-02-11T03:06:48.378Z,43.67
2023-02-11T03:09:19.004Z,48.83
2023-02-11T03:11:45.244Z,41.63
2023-02-11T03:14:13.172Z,45.72
2023-02-11T03:16:39.540Z,41.13
2023-02-11T03:19:10.405Z,45.55
2023-02-11T03:21:38.341Z,44.40
2023-02-11T03:24:09.858Z,47.88
2023-02-11T03:29:17.460Z,50.17
2023-02-11T03:32:02.699Z,52.28
2023-02-11T03:34:44.288Z,41.03
2023-02-11T03:39:38.216Z,47.25
2023-02-11T03:42:06.049Z,40.63
2023-02-11T03:44:37.313Z,45.00
2023-02-11T03:47:04.932Z,43.97
2023-02-11T03:49:32.481Z,41.72
2023-02-11T03:52:00.390Z,44.00
2023-02-11T03:54:29.014Z,47.22
2023-02-11T03:56:56.389Z,44.00
2023-02-11T03:59:22.941Z,39.92
2023-02-11T04:01:49.218Z,43.83
2023-02-11T04:04:15.601Z,44.72
2023-02-11T04:06:41.815Z,44.42
2023-02-11T04:09:08.755Z,40.58
2023-02-11T04:11:35.080Z,44.08
2023-02-11T04:14:01.415Z,45.38
2023-02-11T04:16:27.729Z,39.00
2023-02-11T04:18:53.967Z,37.70
2023-02-11T04:21:20.239Z,38.70
2023-02-11T04:23:46.507Z,38.92
2023-02-11T04:26:12.705Z,37.80
2023-02-11T04:28:38.946Z,42.05
2023-02-11T04:31:05.583Z,52.17
2023-02-11T04:33:31.922Z,36.85
2023-02-11T04:35:58.146Z,42.30
2023-02-11T04:38:24.342Z,39.55
2023-02-11T04:40:50.676Z,39.35
2023-02-11T04:43:16.909Z,38.97
2023-02-11T04:45:43.171Z,37.80
2023-02-11T04:48:09.516Z,41.05
2023-02-11T04:50:35.747Z,40.33
2023-02-11T04:53:01.926Z,37.38
2023-02-11T04:55:28.145Z,39.38
2023-02-11T04:57:55.218Z,37.40
2023-02-11T05:00:21.622Z,37.88
2023-02-11T05:02:47.816Z,40.50
2023-02-11T05:05:14.125Z,36.38
2023-02-11T05:07:40.335Z,41.05
2023-02-11T05:10:06.567Z,39.15
2023-02-11T05:12:32.783Z,45.47
2023-02-11T05:14:59.002Z,39.38
2023-02-11T05:17:25.205Z,38.53
2023-02-11T05:19:51.422Z,42.17
2023-02-11T05:22:17.633Z,38.67
2023-02-11T05:24:43.859Z,38.38
2023-02-11T05:27:10.102Z,42.15
2023-02-11T05:29:36.389Z,39.22
2023-02-11T05:32:02.698Z,37.60
2023-02-11T05:34:28.971Z,37.63
2023-02-11T05:36:55.316Z,38.53
2023-02-11T05:39:21.593Z,39.97
2023-02-11T05:41:47.858Z,43.00
2023-02-11T05:44:14.123Z,40.33
2023-02-11T05:46:40.401Z,40.42
2023-02-11T05:49:06.682Z,40.88
2023-02-11T05:51:32.877Z,43.53
2023-02-11T05:53:59.075Z,42.13
2023-02-11T05:56:25.337Z,40.75
2023-02-11T05:58:51.543Z,41.80
2023-02-11T06:01:17.774Z,40.28
2023-02-11T06:03:44.108Z,39.78
2023-02-11T06:06:11.444Z,43.47
2023-02-11T06:08:39.295Z,37.90
2023-02-11T06:11:05.764Z,42.15
2023-02-11T06:13:31.974Z,42.53
2023-02-11T06:15:59.058Z,47.03
2023-02-11T06:18:25.323Z,45.72
2023-02-11T06:20:51.533Z,41.13
2023-02-11T06:23:17.754Z,41.97
2023-02-11T06:25:44.059Z,48.92
2023-02-11T06:28:10.677Z,48.55
2023-02-11T06:30:37.391Z,46.67
2023-02-11T06:33:03.848Z,42.30
2023-02-11T06:35:30.469Z,47.97
2023-02-11T06:37:56.688Z,42.47
2023-02-11T06:40:22.901Z,47.00
2023-02-11T06:42:49.107Z,38.60
2023-02-11T06:45:15.356Z,37.95
2023-02-11T06:47:41.920Z,43.03
2023-02-11T06:50:09.163Z,41.92
2023-02-11T06:52:35.439Z,47.95
2023-02-11T06:55:02.459Z,41.38
2023-02-11T06:57:29.801Z,41.78
2023-02-11T06:59:56.024Z,44.40
2023-02-11T07:02:22.253Z,44.30
2023-02-11T07:04:48.501Z,45.72
2023-02-11T07:07:14.724Z,47.28
2023-02-11T07:09:41.405Z,45.38
2023-02-11T07:12:09.450Z,40.88
2023-02-11T07:14:35.675Z,46.80
2023-02-11T07:17:03.915Z,44.97
2023-02-11T07:19:30.200Z,44.45
2023-02-11T07:21:56.418Z,47.65
2023-02-11T07:24:23.250Z,46.33
2023-02-11T07:26:49.746Z,45.65
2023-02-11T07:29:15.974Z,50.38
2023-02-11T07:31:42.281Z,47.85
2023-02-11T07:34:10.241Z,48.45
2023-02-11T07:36:36.694Z,51.75
2023-02-11T07:39:02.907Z,48.45
2023-02-11T07:41:29.280Z,49.40
2023-02-11T07:43:55.504Z,52.40
2023-02-11T07:46:23.486Z,52.92
2023-02-11T07:48:50.289Z,53.97
2023-02-11T07:51:17.784Z,54.30
2023-02-11T07:53:45.550Z,48.92
2023-02-11T07:56:12.924Z,48.63
2023-02-11T07:58:39.339Z,48.88
2023-02-11T08:01:06.922Z,50.80
2023-02-11T08:03:33.723Z,50.40
2023-02-11T08:06:03.448Z,53.75
2023-02-11T08:08:29.625Z,49.20
2023-02-11T08:10:55.845Z,50.90
2023-02-11T08:13:22.110Z,48.38
2023-02-11T08:15:48.651Z,49.33
2023-02-11T08:18:15.051Z,49.65
2023-02-11T08:20:41.431Z,53.15
2023-02-11T08:23:07.877Z,50.45
2023-02-11T08:25:34.150Z,56.42
2023-02-11T08:28:00.562Z,50.85
2023-02-11T08:30:27.639Z,53.33
2023-02-11T08:32:53.942Z,48.40
2023-02-11T08:35:20.216Z,53.58
2023-02-11T08:37:46.494Z,49.67
2023-02-11T08:40:12.698Z,55.55
2023-02-11T08:42:38.931Z,50.10
2023-02-11T08:45:05.349Z,47.38
2023-02-11T08:47:31.550Z,51.58
2023-02-11T08:49:57.846Z,44.50
2023-02-11T08:52:24.055Z,47.97
2023-02-11T08:54:50.891Z,45.55
2023-02-11T08:57:17.106Z,56.60
2023-02-11T08:59:43.398Z,52.83
2023-02-11T09:02:13.207Z,48.17
2023-02-11T09:04:39.860Z,50.33
2023-02-11T09:07:06.291Z,50.67
2023-02-11T09:09:32.764Z,48.55
2023-02-11T09:12:00.986Z,46.78
2023-02-11T09:14:27.579Z,52.20
2023-02-11T09:16:53.845Z,50.92
2023-02-11T09:19:20.216Z,49.58
2023-02-11T09:21:46.752Z,46.05
2023-02-11T09:24:13.033Z,45.95
2023-02-11T09:26:41.640Z,45.28
2023-02-11T09:29:07.844Z,47.90
2023-02-11T09:31:35.052Z,47.38
2023-02-11T09:34:03.529Z,46.20
2023-02-11T09:36:31.207Z,42.88
2023-02-11T09:38:57.983Z,51.35
2023-02-11T09:41:24.176Z,43.30
2023-02-11T09:43:51.894Z,44.33
2023-02-11T09:46:20.046Z,47.75
2023-02-11T09:48:47.136Z,44.03
2023-02-11T09:51:20.027Z,44.30
2023-02-11T09:53:47.838Z,42.70
2023-02-11T09:56:14.617Z,45.67
2023-02-11T09:58:42.154Z,49.03
2023-02-11T10:01:13.700Z,45.85
2023-02-11T10:03:51.919Z,43.83
2023-02-11T10:06:20.985Z,47.72
2023-02-11T10:08:57.731Z,46.08
2023-02-11T10:11:32.338Z,42.60
2023-02-11T10:14:03.990Z,45.10
2023-02-11T10:19:05.114Z,43.92
2023-02-11T10:21:52.645Z,42.67
2023-02-11T10:24:19.854Z,40.83
2023-02-11T10:26:46.569Z,40.38
2023-02-11T10:29:33.026Z,42.55
2023-02-11T10:32:01.322Z,40.38
2023-02-11T10:34:27.598Z,38.80
2023-02-11T10:36:53.815Z,43.50
2023-02-11T10:39:21.718Z,45.55
2023-02-11T10:41:51.254Z,42.83
2023-02-11T10:44:27.379Z,42.95
2023-02-11T10:46:54.458Z,39.40
2023-02-11T10:49:34.494Z,44.20
2023-02-11T10:52:19.797Z,42.67
2023-02-11T10:55:14.544Z,43.28
2023-02-11T10:57:44.487Z,40.45
2023-02-11T11:00:26.889Z,43.10
2023-02-11T11:02:55.617Z,40.00
2023-02-11T11:05:26.805Z,39.85
2023-02-11T11:07:54.526Z,41.72
2023-02-11T11:10:34.072Z,41.22
2023-02-11T11:13:00.274Z,42.35
2023-02-11T11:15:28.053Z,40.60
2023-02-11T11:18:21.464Z,45.47
2023-02-11T11:20:59.503Z,45.13
2023-02-11T11:23:26.482Z,40.97
2023-02-11T11:26:06.522Z,43.88
2023-02-11T11:28:41.304Z,46.05
2023-02-11T11:31:15.458Z,42.47
2023-02-11T11:33:43.210Z,47.33
2023-02-11T11:36:11.312Z,43.55
2023-02-11T11:38:42.465Z,41.20
2023-02-11T11:41:23.941Z,42.05
2023-02-11T11:43:54.073Z,44.95
2023-02-11T11:46:24.532Z,43.47
2023-02-11T11:48:51.958Z,42.53
2023-02-11T11:51:18.312Z,41.78
2023-02-11T11:53:57.599Z,44.95
2023-02-11T11:56:32.230Z,39.45
2023-02-11T11:59:00.674Z,41.95
2023-02-11T12:01:29.660Z,44.72
2023-02-11T12:04:23.332Z,45.33
2023-02-11T12:06:52.652Z,46.75
2023-02-11T12:09:21.928Z,43.83
2023-02-11T12:12:14.219Z,42.53
2023-02-11T12:14:49.464Z,42.50
2023-02-11T12:17:35.560Z,44.92
2023-02-11T12:20:20.804Z,43.72
2023-02-11T12:23:05.616Z,44.08
2023-02-11T12:25:50.792Z,43.05
2023-02-11T12:28:31.356Z,39.78
2023-02-11T12:30:57.640Z,44.30
2023-02-11T12:33:30.376Z,42.60
2023-02-11T12:36:02.230Z,42.00
2023-02-11T12:38:47.650Z,41.70
2023-02-11T12:41:16.772Z,45.35
2023-02-11T12:43:43.992Z,41.83
2023-02-11T12:46:18.511Z,42.13
2023-02-11T12:48:56.826Z,43.50
2023-02-11T12:51:31.957Z,43.97
2023-02-11T12:54:10.780Z,50.35
2023-02-11T12:56:44.382Z,43.58
2023-02-11T12:59:14.548Z,46.95
2023-02-11T13:01:42.307Z,46.53
2023-02-11T13:04:13.572Z,46.85
2023-02-11T13:06:41.573Z,47.60
2023-02-11T13:09:14.762Z,51.15
2023-02-11T13:11:43.002Z,51.28
2023-02-11T13:14:13.892Z,51.75
2023-02-11T13:16:44.254Z,53.13
2023-02-11T13:19:10.485Z,46.88
2023-02-11T13:22:02.872Z,48.25
2023-02-11T13:24:49.650Z,52.33
2023-02-11T13:27:23.580Z,52.60
2023-02-11T13:30:19.944Z,57.63
2023-02-11T13:32:58.158Z,54.33
2023-02-11T13:35:27.012Z,48.25
2023-02-11T13:37:53.287Z,48.38
2023-02-11T13:40:19.483Z,50.65
2023-02-11T13:42:51.002Z,53.60
2023-02-11T13:47:43.377Z,51.30
2023-02-11T13:50:21.156Z,55.40
2023-02-11T13:52:47.377Z,53.30
2023-02-11T13:55:13.577Z,53.85
2023-02-11T13:57:40.680Z,51.55
2023-02-11T14:00:25.548Z,53.97
2023-02-11T14:03:29.214Z,51.20
2023-02-11T14:06:26.625Z,51.88
2023-02-11T14:08:59.259Z,50.88
2023-02-11T14:11:43.481Z,57.65
2023-02-11T14:14:12.497Z,55.42
2023-02-11T14:16:58.925Z,59.40
2023-02-11T14:19:33.982Z,56.55
2023-02-11T14:22:04.296Z,53.58
2023-02-11T14:24:33.423Z,59.38
2023-02-11T14:27:11.186Z,52.63
2023-02-11T14:29:50.860Z,58.40
2023-02-11T14:32:34.865Z,55.60
2023-02-11T14:35:12.095Z,51.47
2023-02-11T14:37:50.522Z,53.65
2023-02-11T14:40:26.837Z,50.72
2023-02-11T14:42:54.165Z,57.80
2023-02-11T14:45:25.542Z,58.13
2023-02-11T14:48:04.479Z,60.65
2023-02-11T14:50:36.509Z,55.72
2023-02-11T14:53:02.922Z,58.65
2023-02-11T14:55:34.324Z,57.28
2023-02-11T14:58:06.649Z,59.30
2023-02-11T15:00:32.864Z,56.38
2023-02-11T15:02:59.231Z,61.30
2023-02-11T15:05:26.844Z,56.85
2023-02-11T15:07:57.916Z,55.08
2023-02-11T15:10:31.995Z,56.50
2023-02-11T15:12:59.205Z,52.63
2023-02-11T15:15:26.388Z,61.70
2023-02-11T15:17:53.196Z,57.95
2023-02-11T15:20:23.471Z,55.95
2023-02-11T15:22:51.883Z,55.35
2023-02-11T15:25:19.909Z,56.15
2023-02-11T15:27:46.077Z,55.60
2023-02-11T15:30:24.878Z,58.08
2023-02-11T15:32:53.616Z,56.08
2023-02-11T15:35:19.946Z,53.50
2023-02-11T15:37:47.384Z,55.75
2023-02-11T15:40:18.798Z,51.55
2023-02-11T15:43:07.599Z,55.08
2023-02-11T15:45:36.431Z,58.35
2023-02-11T15:48:09.089Z,54.00
2023-02-11T15:50:37.042Z,55.10
2023-02-11T15:53:26.751Z,55.40
2023-02-11T15:55:55.003Z,50.30
2023-02-11T15:58:22.549Z,53.63
2023-02-11T16:00:50.387Z,52.42
2023-02-11T16:03:21.041Z,53.35
2023-02-11T16:05:47.399Z,56.63
2023-02-11T16:08:21.111Z,51.55
2023-02-11T16:10:58.514Z,56.58
2023-02-11T16:13:25.986Z,48.33
2023-02-11T16:16:04.759Z,51.53
2023-02-11T16:18:39.119Z,49.55
2023-02-11T16:21:15.652Z,48.30
2023-02-11T16:23:42.701Z,51.40
2023-02-11T16:26:21.102Z,52.38
2023-02-11T16:28:49.516Z,49.80
2023-02-11T16:31:16.170Z,50.45
2023-02-11T16:33:45.196Z,49.28
2023-02-11T16:36:12.777Z,49.80
2023-02-11T16:38:41.373Z,51.42
2023-02-11T16:41:08.717Z,49.15
2023-02-11T16:43:34.957Z,47.47
2023-02-11T16:46:01.220Z,47.80
2023-02-11T16:48:27.471Z,50.85
2023-02-11T16:50:53.873Z,50.05
2023-02-11T16:53:23.918Z,50.65
2023-02-11T16:55:50.480Z,50.63
2023-02-11T16:58:16.728Z,50.28
2023-02-11T17:00:44.716Z,49.35
2023-02-11T17:03:16.155Z,47.95
2023-02-11T17:05:54.911Z,48.47
2023-02-11T17:08:21.466Z,50.72
2023-02-11T17:10:48.226Z,50.33
2023-02-11T17:13:14.492Z,50.17
2023-02-11T17:15:40.759Z,52.03
2023-02-11T17:18:06.949Z,58.13
2023-02-11T17:20:33.172Z,47.92
2023-02-11T17:22:59.457Z,44.97
2023-02-11T17:25:25.688Z,47.80
2023-02-11T17:27:52.986Z,50.60
2023-02-11T17:30:19.284Z,48.75
2023-02-11T17:32:47.134Z,49.55
2023-02-11T17:35:13.340Z,52.70
2023-02-11T17:37:39.775Z,57.00
2023-02-11T17:40:06.854Z,54.40
2023-02-11T17:42:33.120Z,50.80
2023-02-11T17:44:59.305Z,54.97
2023-02-11T17:47:25.559Z,50.88
2023-02-11T17:49:51.870Z,57.10
2023-02-11T17:52:19.280Z,61.80
2023-02-11T17:54:45.810Z,55.65
2023-02-11T17:57:12.113Z,56.05
2023-02-11T17:59:39.022Z,58.00
2023-02-11T18:02:05.416Z,56.38
2023-02-11T18:04:32.040Z,57.53
2023-02-11T18:06:58.427Z,59.15
2023-02-11T18:09:25.337Z,59.95
2023-02-11T18:11:52.501Z,56.78
2023-02-11T18:14:19.357Z,59.47
2023-02-11T18:16:47.373Z,55.50
2023-02-11T18:19:13.712Z,58.90
2023-02-11T18:21:39.969Z,57.05
2023-02-11T18:24:07.231Z,59.38
2023-02-11T18:26:33.984Z,57.00
2023-02-11T18:29:00.423Z,60.25
2023-02-11T18:31:27.119Z,58.97
2023-02-11T18:33:53.431Z,56.72
2023-02-11T18:36:19.731Z,58.70
2023-02-11T18:38:46.148Z,60.60
2023-02-11T18:41:12.759Z,60.28
2023-02-11T18:43:39.937Z,56.72
2023-02-11T18:46:07.599Z,57.88
2023-02-11T18:48:33.966Z,58.42
2023-02-11T18:51:00.219Z,58.80
2023-02-11T18:53:26.450Z,55.80
2023-02-11T18:55:53.261Z,59.00
2023-02-11T18:58:21.176Z,57.90
2023-02-11T19:00:48.103Z,56.72
2023-02-11T19:03:14.368Z,58.10
2023-02-11T19:05:43.388Z,61.03
2023-02-11T19:08:09.628Z,64.80
2023-02-11T19:10:38.917Z,59.63
2023-02-11T19:13:05.118Z,63.47
2023-02-11T19:15:31.338Z,63.80
2023-02-11T19:17:57.558Z,60.55
2023-02-11T19:20:23.781Z,61.95
2023-02-11T19:22:50.171Z,62.38
2023-02-11T19:25:16.408Z,64.20
2023-02-11T19:27:42.671Z,63.10
2023-02-11T19:30:09.567Z,61.58
2023-02-11T19:32:35.775Z,66.32
2023-02-11T19:35:01.987Z,66.65
2023-02-11T19:37:28.210Z,67.82
2023-02-11T19:39:54.404Z,63.78
2023-02-11T19:42:20.623Z,64.95
2023-02-11T19:44:46.865Z,69.63
2023-02-11T19:47:13.422Z,70.90
2023-02-11T19:49:39.670Z,66.75
2023-02-11T19:52:05.920Z,71.57
2023-02-11T19:54:32.120Z,69.07
2023-02-11T19:56:58.672Z,69.97
2023-02-11T19:59:24.960Z,74.97
2023-02-11T20:01:53.069Z,68.93
2023-02-11T20:04:19.765Z,69.47
2023-02-11T20:06:48.169Z,71.13
2023-02-11T20:09:14.797Z,70.38
2023-02-11T20:11:41.309Z,69.68
2023-02-11T20:14:08.485Z,72.90
2023-02-11T20:16:47.481Z,71.40
2023-02-11T20:19:17.740Z,74.22
2023-02-11T20:21:46.703Z,77.45
2023-02-11T20:24:13.376Z,74.75
2023-02-11T20:26:42.204Z,74.00
2023-02-11T20:29:08.416Z,72.38
2023-02-11T20:31:34.927Z,76.30
2023-02-11T20:34:01.582Z,74.38
2023-02-11T20:36:32.382Z,73.65
2023-02-11T20:38:59.729Z,69.50
2023-02-11T20:41:27.853Z,74.60
2023-02-11T20:43:55.164Z,78.43
2023-02-11T20:46:23.677Z,62.00
2023-02-11T20:48:50.030Z,69.88
2023-02-11T20:51:19.052Z,65.65
2023-02-11T20:53:49.793Z,61.60
2023-02-11T20:56:16.774Z,67.13
2023-02-11T20:58:42.978Z,67.05
2023-02-11T21:01:13.895Z,60.50
2023-02-11T21:03:40.927Z,61.67
2023-02-11T21:06:07.919Z,69.50
2023-02-11T21:08:34.396Z,65.05
2023-02-11T21:11:01.786Z,67.75
2023-02-11T21:13:28.059Z,62.35
2023-02-11T21:15:55.855Z,62.88
2023-02-11T21:18:23.025Z,59.72
2023-02-11T21:20:49.312Z,63.47
2023-02-11T21:23:15.689Z,61.40
2023-02-11T21:25:42.021Z,66.13
2023-02-11T21:28:08.300Z,61.38
2023-02-11T21:30:37.073Z,61.63
2023-02-11T21:33:03.316Z,67.70
2023-02-11T21:35:31.590Z,64.25
2023-02-11T21:37:57.947Z,63.25
2023-02-11T21:40:27.316Z,60.40
2023-02-11T21:42:53.676Z,63.28
2023-02-11T21:45:19.863Z,61.17
2023-02-11T21:47:46.092Z,68.97
2023-02-11T21:50:12.354Z,58.78
2023-02-11T21:52:38.604Z,66.95
2023-02-11T21:55:05.006Z,67.45
2023-02-11T21:57:31.395Z,64.88
2023-02-11T21:59:57.625Z,61.55
2023-02-11T22:02:23.821Z,62.75
2023-02-11T22:04:50.108Z,67.15
2023-02-11T22:07:16.420Z,71.45
2023-02-11T22:09:42.829Z,59.25
2023-02-11T22:12:09.446Z,59.97
2023-02-11T22:14:35.953Z,60.25
2023-02-11T22:17:02.267Z,57.95
2023-02-11T22:19:28.625Z,67.65
2023-02-11T22:21:54.862Z,76.25
2023-02-11T22:24:21.147Z,74.82
2023-02-11T22:26:47.421Z,65.32
2023-02-11T22:29:13.638Z,76.13
2023-02-11T22:31:40.074Z,68.15
2023-02-11T22:34:06.508Z,69.80
2023-02-11T22:36:36.789Z,70.57
2023-02-11T22:39:08.166Z,58.67
2023-02-11T22:41:34.700Z,60.45
2023-02-11T22:44:00.911Z,62.25
2023-02-11T22:46:27.202Z,65.30
2023-02-11T22:48:53.432Z,60.17
2023-02-11T22:51:21.423Z,64.97
2023-02-11T22:53:52.001Z,61.40
2023-02-11T22:56:18.470Z,68.03
2023-02-11T22:58:44.849Z,59.70
2023-02-11T23:01:12.651Z,52.88
2023-02-11T23:03:38.983Z,59.17
2023-02-11T23:06:05.606Z,61.13
2023-02-11T23:08:32.513Z,61.15
2023-02-11T23:11:25.117Z,58.83
2023-02-11T23:13:52.258Z,64.57
2023-02-11T23:16:19.921Z,67.53
2023-02-11T23:18:47.843Z,62.55
2023-02-11T23:21:16.543Z,61.60
2023-02-11T23:23:42.848Z,62.58
2023-02-11T23:26:10.365Z,65.38
2023-02-11T23:28:36.610Z,61.65
2023-02-11T23:31:12.325Z,60.70
2023-02-11T23:33:38.756Z,60.72
2023-02-11T23:36:05.145Z,63.47
2023-02-11T23:38:31.502Z,55.75
2023-02-11T23:40:57.741Z,58.45
2023-02-11T23:43:24.451Z,66.18
2023-02-11T23:45:52.009Z,59.20
2023-02-11T23:48:18.516Z,66.45
2023-02-11T23:50:44.842Z,63.05
2023-02-11T23:53:11.273Z,57.47
2023-02-11T23:55:40.872Z,65.60
2023-02-11T23:58:07.345Z,68.10
